Terminal Aerodrome Forecast
Issued by NWS Sterling, VA

Home | Current Version | Previous Version | Text Only | Print | Product List | Glossary On
Versions: 1 2 3 4 5 6 7 8 9 10 11 12 13 14 15 16 17 18 19 20
325
FTUS41 KLWX 291511 AAA
TAFBWI
TAF AMD
KBWI 291511Z 2915/3018 VRB04KT P6SM SCT150
     FM291800 16007KT P6SM SCT040 BKN090
     FM292200 16007KT P6SM -SHRA BKN040 OVC090
     FM300100 16005KT 4SM SHRA OVC035
     FM300700 VRB03KT 3SM -SHRA BR OVC015=

USA.gov is the U.S. government's official web portal to all federal, state and local government web resources and services.